createdAt,value
2023-02-06T00:03:20.654Z,102686.94
2023-02-06T00:07:22.362Z,102676.41
2023-02-06T00:11:24.364Z,102665.94
2023-02-06T00:15:26.490Z,102670.28
2023-02-06T00:19:28.142Z,102670.00
2023-02-06T00:23:29.618Z,102670.47
2023-02-06T00:27:31.250Z,102687.63
2023-02-06T00:31:33.621Z,102678.84
2023-02-06T00:35:35.741Z,102681.22
2023-02-06T00:39:37.416Z,102671.41
2023-02-06T00:43:39.209Z,102668.66
2023-02-06T00:47:40.766Z,102669.31
2023-02-06T00:51:44.246Z,102681.44
2023-02-06T00:55:45.755Z,102672.84
2023-02-06T00:59:47.243Z,102660.84
2023-02-06T01:03:48.825Z,102680.53
2023-02-06T01:07:50.333Z,102676.28
2023-02-06T01:11:52.571Z,102687.69
2023-02-06T01:15:54.100Z,102683.22
2023-02-06T01:19:55.575Z,102672.03
2023-02-06T01:23:57.204Z,102673.59
2023-02-06T01:27:58.887Z,102667.59
2023-02-06T01:32:00.549Z,102663.38
2023-02-06T01:36:02.121Z,102659.72
2023-02-06T01:40:06.786Z,102673.25
2023-02-06T01:44:18.745Z,102673.91
2023-02-06T01:48:33.407Z,102677.31
2023-02-06T01:52:35.124Z,102684.16
2023-02-06T01:56:41.309Z,102698.84
2023-02-06T02:00:44.140Z,102693.81
2023-02-06T02:04:46.079Z,102701.72
2023-02-06T02:08:49.869Z,102698.53
2023-02-06T02:12:51.395Z,102688.66
2023-02-06T02:16:56.049Z,102687.59
2023-02-06T02:21:21.458Z,102681.25
2023-02-06T02:25:36.397Z,102662.31
2023-02-06T02:30:16.696Z,102670.72
2023-02-06T02:34:39.638Z,102661.81
2023-02-06T02:39:14.171Z,102653.63
2023-02-06T02:43:34.667Z,102640.31
2023-02-06T02:47:45.425Z,102631.22
2023-02-06T02:51:49.133Z,102624.97
2023-02-06T02:55:51.486Z,102618.13
2023-02-06T02:59:58.836Z,102619.41
2023-02-06T03:04:10.466Z,102619.38
2023-02-06T03:08:37.852Z,102611.38
2023-02-06T03:12:47.758Z,102598.19
2023-02-06T03:16:54.610Z,102610.34
2023-02-06T03:20:58.528Z,102608.38
2023-02-06T03:25:02.716Z,102603.28
2023-02-06T03:29:08.967Z,102601.72
2023-02-06T03:33:15.062Z,102602.81
2023-02-06T03:37:17.132Z,102606.53
2023-02-06T03:41:23.870Z,102602.22
2023-02-06T03:45:29.775Z,102615.19
2023-02-06T03:49:33.159Z,102604.50
2023-02-06T03:53:37.427Z,102619.25
2023-02-06T03:57:44.484Z,102620.03
2023-02-06T04:01:50.428Z,102609.50
2023-02-06T04:05:52.083Z,102599.34
2023-02-06T04:09:53.810Z,102613.34
2023-02-06T04:13:55.320Z,102608.16
2023-02-06T04:18:01.060Z,102595.16
2023-02-06T04:22:04.342Z,102596.06
2023-02-06T04:26:05.826Z,102588.16
2023-02-06T04:30:08.276Z,102595.34
2023-02-06T04:34:10.124Z,102608.63
2023-02-06T04:38:11.706Z,102607.47
2023-02-06T04:42:13.143Z,102599.25
2023-02-06T04:46:14.774Z,102602.16
2023-02-06T04:50:19.218Z,102615.13
2023-02-06T04:54:20.844Z,102627.44
2023-02-06T04:58:22.352Z,102634.00
2023-02-06T05:02:23.865Z,102633.78
2023-02-06T05:06:25.577Z,102641.19
2023-02-06T05:10:27.331Z,102643.41
2023-02-06T05:14:28.919Z,102635.91
2023-02-06T05:18:30.493Z,102622.03
2023-02-06T05:22:32.035Z,102609.13
2023-02-06T05:26:33.494Z,102605.63
2023-02-06T05:30:35.136Z,102615.88
2023-02-06T05:34:36.639Z,102621.81
2023-02-06T05:38:38.309Z,102617.53
2023-02-06T05:42:39.950Z,102624.50
2023-02-06T05:46:41.488Z,102625.38
2023-02-06T05:50:43.380Z,102624.78
2023-02-06T05:54:49.663Z,102617.38
2023-02-06T05:58:51.277Z,102625.00
2023-02-06T06:02:52.765Z,102621.84
2023-02-06T06:06:54.267Z,102604.63
2023-02-06T06:10:55.753Z,102607.84
2023-02-06T06:14:57.828Z,102605.56
2023-02-06T06:18:59.734Z,102605.50
2023-02-06T06:23:01.411Z,102598.34
2023-02-06T06:27:03.703Z,102604.88
2023-02-06T06:31:09.018Z,102609.88
2023-02-06T06:35:10.750Z,102606.47
2023-02-06T06:40:02.353Z,102615.25
2023-02-06T06:44:05.354Z,102606.59
2023-02-06T06:48:06.964Z,102610.97
2023-02-06T06:52:19.593Z,102601.00
2023-02-06T06:56:26.792Z,102613.25
2023-02-06T07:00:28.922Z,102602.44
2023-02-06T07:04:31.903Z,102597.00
2023-02-06T07:08:33.436Z,102613.13
2023-02-06T07:12:37.356Z,102606.59
2023-02-06T07:16:38.932Z,102601.72
2023-02-06T07:20:40.444Z,102609.28
2023-02-06T07:24:42.098Z,102607.06
2023-02-06T07:28:43.514Z,102595.41
2023-02-06T07:32:45.250Z,102599.06
2023-02-06T07:36:47.177Z,102582.38
2023-02-06T07:40:48.700Z,102579.09
2023-02-06T07:44:50.434Z,102583.75
2023-02-06T07:48:52.038Z,102583.59
2023-02-06T07:52:55.639Z,102586.75
2023-02-06T07:56:57.529Z,102576.19
2023-02-06T08:01:03.625Z,102589.44
2023-02-06T08:05:05.793Z,102598.09
2023-02-06T08:09:07.250Z,102596.50
2023-02-06T08:13:10.475Z,102602.75
2023-02-06T08:17:13.584Z,102596.41
2023-02-06T08:21:21.529Z,102597.50
2023-02-06T08:25:23.120Z,102603.50
2023-02-06T08:29:25.763Z,102600.84
2023-02-06T08:33:27.340Z,102600.16
2023-02-06T08:37:28.875Z,102586.13
2023-02-06T08:41:39.458Z,102589.97
2023-02-06T08:45:41.005Z,102589.13
2023-02-06T08:49:42.460Z,102579.84
2023-02-06T08:53:43.963Z,102566.38
2023-02-06T08:57:45.418Z,102562.84
2023-02-06T09:01:49.040Z,102562.88
2023-02-06T09:05:51.571Z,102563.09
2023-02-06T09:09:54.313Z,102553.63
2023-02-06T09:13:58.242Z,102542.38
2023-02-06T09:17:59.944Z,102552.78
2023-02-06T09:22:01.425Z,102545.94
2023-02-06T09:26:03.258Z,102564.41
2023-02-06T09:30:05.581Z,102565.25
2023-02-06T09:34:08.334Z,102560.69
2023-02-06T09:38:10.074Z,102565.06
2023-02-06T09:42:19.255Z,102564.09
2023-02-06T09:46:27.939Z,102577.34
2023-02-06T09:50:39.570Z,102566.88
2023-02-06T09:55:07.225Z,102568.63
2023-02-06T09:59:18.494Z,102561.22
2023-02-06T10:03:41.790Z,102555.44
2023-02-06T10:08:01.793Z,102539.97
2023-02-06T10:12:22.853Z,102537.22
2023-02-06T10:16:47.270Z,102528.50
2023-02-06T10:21:23.645Z,102542.38
2023-02-06T10:25:33.945Z,102543.75
2023-02-06T10:29:36.421Z,102538.38
2023-02-06T10:34:09.063Z,102527.03
2023-02-06T10:38:29.635Z,102531.94
2023-02-06T10:42:53.128Z,102521.47
2023-02-06T10:46:56.111Z,102523.13
2023-02-06T10:51:15.624Z,102551.75
2023-02-06T10:55:41.177Z,102560.34
2023-02-06T10:59:53.513Z,102560.28
2023-02-06T11:04:18.177Z,102554.91
2023-02-06T11:08:28.304Z,102542.75
2023-02-06T11:13:10.144Z,102525.38
2023-02-06T11:17:40.646Z,102517.47
2023-02-06T11:21:42.178Z,102506.91
2023-02-06T11:25:45.256Z,102491.47
2023-02-06T11:29:52.900Z,102497.81
2023-02-06T11:33:56.728Z,102506.81
2023-02-06T11:38:48.403Z,102502.59
2023-02-06T11:42:52.805Z,102511.44
2023-02-06T11:46:54.818Z,102508.97
2023-02-06T11:50:56.346Z,102504.63
2023-02-06T11:55:02.151Z,102499.38
2023-02-06T11:59:18.975Z,102495.88
2023-02-06T12:03:50.309Z,102509.88
2023-02-06T12:08:13.601Z,102487.09
2023-02-06T12:12:36.286Z,102496.75
2023-02-06T12:17:28.135Z,102492.31
2023-02-06T12:21:41.996Z,102485.22
2023-02-06T12:25:49.479Z,102494.84
2023-02-06T12:30:29.965Z,102500.13
2023-02-06T12:34:54.697Z,102493.25
2023-02-06T12:39:12.442Z,102487.16
2023-02-06T12:43:17.080Z,102488.00
2023-02-06T12:47:40.784Z,102487.03
2023-02-06T12:52:03.203Z,102492.97
2023-02-06T12:56:04.928Z,102488.59
2023-02-06T13:00:44.796Z,102481.50
2023-02-06T13:05:36.671Z,102481.31
2023-02-06T13:09:49.508Z,102466.50
2023-02-06T13:14:00.405Z,102467.44
2023-02-06T13:18:02.053Z,102456.22
2023-02-06T13:22:31.155Z,102458.09
2023-02-06T13:26:56.329Z,102457.25
2023-02-06T13:31:09.301Z,102453.84
2023-02-06T13:35:17.353Z,102459.97
2023-02-06T13:39:25.929Z,102457.34
2023-02-06T13:43:30.277Z,102469.63
2023-02-06T13:48:02.716Z,102474.91
2023-02-06T13:52:25.744Z,102481.91
2023-02-06T13:57:01.137Z,102483.63
2023-02-06T14:01:10.467Z,102496.78
2023-02-06T14:05:42.791Z,102496.81
2023-02-06T14:10:05.072Z,102506.44
2023-02-06T14:14:28.228Z,102502.84
2023-02-06T14:18:48.063Z,102506.38
2023-02-06T14:23:10.010Z,102507.28
2023-02-06T14:27:23.327Z,102512.50
2023-02-06T14:31:46.112Z,102515.91
2023-02-06T14:36:17.756Z,102512.44
2023-02-06T14:40:28.102Z,102515.97
2023-02-06T14:44:30.882Z,102513.41
2023-02-06T14:48:53.393Z,102508.09
2023-02-06T14:53:20.148Z,102521.00
2023-02-06T14:57:27.876Z,102517.72
2023-02-06T15:01:32.415Z,102512.03
2023-02-06T15:05:35.613Z,102531.28
2023-02-06T15:09:43.975Z,102534.34
2023-02-06T15:13:50.694Z,102544.06
2023-02-06T15:17:59.451Z,102571.81
2023-02-06T15:22:05.103Z,102577.38
2023-02-06T15:26:32.502Z,102606.00
2023-02-06T15:30:36.993Z,102610.78
2023-02-06T15:34:38.915Z,102609.78
2023-02-06T15:38:40.633Z,102622.69
2023-02-06T15:42:42.986Z,102632.00
2023-02-06T15:46:45.446Z,102640.41
2023-02-06T15:51:00.163Z,102635.69
2023-02-06T15:55:02.130Z,102652.84
2023-02-06T15:59:06.972Z,102653.47
2023-02-06T16:03:18.133Z,102650.59
2023-02-06T16:07:24.515Z,102664.25
2023-02-06T16:11:50.973Z,102675.22
2023-02-06T16:16:11.467Z,102668.75
2023-02-06T16:20:40.885Z,102679.94
2023-02-06T16:24:42.755Z,102680.69
2023-02-06T16:28:58.013Z,102682.16
2023-02-06T16:33:16.263Z,102682.66
2023-02-06T16:37:27.611Z,102683.25
2023-02-06T16:41:38.066Z,102678.75
2023-02-06T16:45:39.548Z,102667.44
2023-02-06T16:49:41.481Z,102672.50
2023-02-06T16:53:44.163Z,102682.06
2023-02-06T16:57:46.982Z,102689.59
2023-02-06T17:01:48.900Z,102697.28
2023-02-06T17:05:50.447Z,102705.00
2023-02-06T17:09:53.940Z,102710.31
2023-02-06T17:13:55.391Z,102719.13
2023-02-06T17:17:57.099Z,102727.84
2023-02-06T17:21:58.797Z,102718.31
2023-02-06T17:26:00.423Z,102718.84
2023-02-06T17:30:01.975Z,102717.44
2023-02-06T17:34:03.574Z,102732.84
2023-02-06T17:38:07.147Z,102727.81
2023-02-06T17:42:08.954Z,102734.81
2023-02-06T17:46:11.492Z,102728.59
2023-02-06T17:50:16.515Z,102730.38
2023-02-06T17:54:18.017Z,102747.41
2023-02-06T17:58:20.557Z,102752.25
2023-02-06T18:02:22.595Z,102752.94
2023-02-06T18:06:24.141Z,102748.88
2023-02-06T18:10:26.362Z,102754.19
2023-02-06T18:14:27.974Z,102741.97
2023-02-06T18:18:31.033Z,102752.47
2023-02-06T18:22:39.932Z,102762.91
2023-02-06T18:26:41.867Z,102766.97
2023-02-06T18:30:44.000Z,102772.91
2023-02-06T18:34:46.319Z,102770.41
2023-02-06T18:38:47.954Z,102761.66
2023-02-06T18:42:53.843Z,102767.69
2023-02-06T18:46:55.310Z,102774.34
2023-02-06T18:50:58.465Z,102775.78
2023-02-06T18:55:00.249Z,102770.19
2023-02-06T18:59:03.789Z,102768.44
2023-02-06T19:03:05.388Z,102761.91
2023-02-06T19:07:08.597Z,102758.41
2023-02-06T19:11:10.301Z,102757.56
2023-02-06T19:22:06.391Z,102742.91
2023-02-06T19:27:19.096Z,102756.69
2023-02-06T19:31:27.831Z,102764.50
2023-02-06T19:41:58.310Z,102784.34
2023-02-06T19:46:12.502Z,102797.44
2023-02-06T19:50:14.510Z,102821.56
2023-02-06T19:54:16.504Z,102834.44
2023-02-06T19:58:20.658Z,102841.34
2023-02-06T20:03:12.141Z,102840.53
2023-02-06T20:08:07.667Z,102838.50
2023-02-06T20:12:15.233Z,102843.56
2023-02-06T20:16:49.739Z,102864.25
2023-02-06T20:26:55.879Z,102892.09
2023-02-06T20:30:59.950Z,102896.25
2023-02-06T20:35:01.576Z,102890.16
2023-02-06T20:39:31.899Z,102900.38
2023-02-06T20:44:24.111Z,102907.00
2023-02-06T20:48:26.110Z,102892.97
2023-02-06T20:52:29.478Z,102908.06
2023-02-06T20:56:31.676Z,102906.44
2023-02-06T21:00:36.996Z,102889.00
2023-02-06T21:05:29.515Z,102890.34
2023-02-06T21:09:31.751Z,102886.78
2023-02-06T21:14:08.779Z,102885.50
2023-02-06T21:18:10.639Z,102887.50
2023-02-06T21:22:23.547Z,102892.53
2023-02-06T21:26:27.626Z,102885.41
2023-02-06T21:30:31.386Z,102900.34
2023-02-06T21:34:34.770Z,102893.16
2023-02-06T21:38:39.168Z,102891.13
2023-02-06T21:42:42.079Z,102884.44
2023-02-06T21:46:43.841Z,102894.16
2023-02-06T21:50:45.864Z,102886.78
2023-02-06T21:54:47.522Z,102897.28
2023-02-06T21:58:50.510Z,102906.09
2023-02-06T22:02:53.446Z,102907.81
2023-02-06T22:06:55.304Z,102905.72
2023-02-06T22:10:59.099Z,102905.09
2023-02-06T22:15:00.937Z,102897.50
2023-02-06T22:19:52.932Z,102893.22
2023-02-06T22:24:45.234Z,102905.13
2023-02-06T22:29:15.789Z,102907.50
2023-02-06T22:33:18.150Z,102902.38
2023-02-06T22:37:19.955Z,102900.50
2023-02-06T22:41:22.455Z,102895.50
2023-02-06T22:45:24.441Z,102893.81
2023-02-06T22:49:26.460Z,102886.00
2023-02-06T22:53:33.967Z,102893.16
2023-02-06T22:57:37.040Z,102900.91
2023-02-06T23:02:12.761Z,102903.69
2023-02-06T23:06:15.710Z,102908.41
2023-02-06T23:10:52.020Z,102900.19
2023-02-06T23:15:43.942Z,102897.81
2023-02-06T23:20:36.227Z,102896.25
2023-02-06T23:24:37.774Z,102901.88
2023-02-06T23:28:41.887Z,102904.91
2023-02-06T23:32:43.658Z,102901.25
2023-02-06T23:36:46.524Z,102915.91
2023-02-06T23:40:48.760Z,102915.47
2023-02-06T23:44:50.312Z,102915.41
2023-02-06T23:48:51.960Z,102923.09
2023-02-06T23:53:27.665Z,102922.34
